East Davis: Past 24 Hour Conditions

 

Cape Dorset Airport

06:00 PM EDT 30 September 2014
This table is a summary of hourly weather conditions for the past 24 hours.
Date / Time
(EDT)
Wind(knots) Conditions Visibility(km) Pressure(kPa) Air tempC) Relative humidity(%) Dew pointC) Wind Chill
30 September 2014
18:00 WNW 21 gust 29 Light Snow 16 101.4 -4 75 -8 -13
17:00 WNW 20 gust 30 Partly Cloudy 16 101.3 -4 70 -9 -12
16:00 WNW 22 gust 28 Light Snow 24 101.3 -4 66 -9 -12
15:00 WNW 23 gust 29 Mostly Cloudy 24 101.2 -3 65 -9 -12
14:00 WNW 24 gust 30 Light Snow 24 101.1 -3 69 -8 -12
13:00 WNW 20 gust 29 Light Snow 24 101.0 -3 68 -8 -11
12:00 WNW 22 gust 30 Light Snow 24 101.0 -3 72 -7 -11
11:00 WNW 19 gust 27 Mostly Cloudy 24 100.9 -3 74 -7 -11
10:00 WNW 20 gust 27 Partly Cloudy 24 100.9 -4 73 -8 -12
9:00 WNW 18 gust 23 Mainly Sunny 24 100.9 -4 78 -8 -13
8:00 WNW 17 gust 26 Sunny 16 100.9 -5 78 -8 -13
7:00 WNW 19 gust 26 Clear 16 100.8 -5 76 -9 -14
6:00 WNW 19 gust 26 Clear 16 100.8 -5 79 -8 -13
5:00 WNW 16 gust 24 Partly Cloudy 16 100.8 -4 81 -7 -12
4:00 WNW 18 gust 23 Cloudy 16 100.8 -4 74 -8 -12
3:00 WNW 12 gust 18 Light Snow 16 100.8 -4 68 -9 -10
2:00 WNW 13 Mostly Cloudy 16 100.8 -4 77 -8 -11
1:00 WNW 12 gust 19 Mostly Cloudy 16 100.8 -5 71 -9 -11
0:00 WNW 16 gust 21 Mainly Clear 16 100.8 -5 70 -9 -13
29 September 2014
23:00 NW 11 Clear 16 100.8 -5 83 -7 -11
22:00 WNW 9 Cloudy 16 100.8 -5 85 -7 -11
21:00 W 10 Clear 16 100.9 -6 81 -8 -12
20:00 WNW 8 Partly Cloudy 16 100.9 -5 74 -9 -11
19:00 NW 12 gust 21 Clear 16 100.9 -5 74 -9 -11
18:00 NW 15 Sunny 16 101.0 -4 70 -9 -12
 
Map of Arctic - Eastern Arctic marine weather areas Baker Lake Airport Chesterfield Inlet Airport Coral Harbour Airport Gjoa Haven Airport Kugaaruk Airport Rankin Inlet Airport Shepherd Bay Airport Whale Cove Airport Arctic Bay Brevoort Island Qikiqtarjuaq Airport Cape Dorset Airport Cape Dyer Cape Hooper Clyde Airport Grise Fiord Airport Hall Beach Airport Igloolik Airport Iqaluit Airport Longstaff Bluff Pangnirtung Airport Pond Inlet Airport Repulse Bay Airport Resolute Airport Resolution Island Rowley Island Airport Taloyoak Airport Wager Bay Akulivik Airport Ivujivik Airport Puvirnituq Airport Kangiqsujuaq Airport Kangirsuk Airport Quaqtaq Airport Tasiujaq Airport Cape Kakkiviak Cape Kiglapait Nain Airport Saglek Cape Mercy Kimmirut Airport Aupaluk Airport Salluit Airport Kangiqsualujjuaq Airport Fort Ross
Legend: buoyBuoy land stationLand Station